Terminal Aerodrome Forecast
Issued by NWS Tampa Bay Area, FL

Home | Current Version | Previous Version | Text Only | Print | Product List | Glossary On
Versions: 1 2 3 4 5 6 7 8 9 10 11 12 13 14 15 16 17 18 19 20 21 22 23 24 25
000
FTUS42 KTBW 011800 CCA
TAFTPA
TAF COR
KTPA 011809Z 0118/0218 16010KT P6SM SCT050 SCT250
     FM012300 17007KT P6SM FEW050 BKN250
     FM020600 18007KT P6SM SCT020 BKN100
     FM020900 19009KT 6SM BR FEW007 SCT015 BKN035
     FM021200 23012G21KT P6SM VCSH SCT015 BKN025=

USA.gov is the U.S. government's official web portal to all federal, state and local government web resources and services.